TimeEST,TemperatureF,Dew PointF,Humidity,Sea Level PressureIn,VisibilityMPH,Wind Direction,Wind SpeedMPH,Gust SpeedMPH,PrecipitationIn,Events,Conditions,WindDirDegrees,DateUTC
12:15 AM,39.2,32.0,75,30.12,10.0,East,12.7,18.4,N/A,,Overcast,100,2013-02-27 05:15:00
12:35 AM,39.2,32.0,75,30.11,10.0,East,13.8,23.0,N/A,,Overcast,90,2013-02-27 05:35:00
12:55 AM,39.2,32.0,75,30.10,10.0,East,13.8,18.4,N/A,,Overcast,80,2013-02-27 05:55:00
1:15 AM,39.2,35.6,87,30.09,9.0,East,15.0,19.6,N/A,Rain,Light Rain,90,2013-02-27 06:15:00
1:35 AM,39.2,35.6,87,30.08,7.0,East,10.4,18.4,N/A,,Overcast,90,2013-02-27 06:35:00
1:55 AM,39.2,37.4,93,30.05,4.0,East,13.8,23.0,N/A,Rain,Light Rain,80,2013-02-27 06:55:00
2:15 AM,39.2,37.4,93,30.04,10.0,East,12.7,18.4,N/A,,Overcast,90,2013-02-27 07:15:00
2:35 AM,41.0,39.2,93,30.03,9.0,East,17.3,21.9,N/A,,Overcast,90,2013-02-27 07:35:00
2:55 AM,41.0,39.2,93,30.02,10.0,East,12.7,20.7,N/A,,Overcast,100,2013-02-27 07:55:00
3:15 AM,41.0,39.2,93,30.01,10.0,East,16.1,23.0,N/A,,Overcast,90,2013-02-27 08:15:00
3:35 AM,41.0,39.2,93,30.01,8.0,East,15.0,21.9,N/A,Rain,Light Rain,100,2013-02-27 08:35:00
3:55 AM,41.0,41.0,100,30.01,5.0,East,15.0,25.3,N/A,Rain,Light Rain,100,2013-02-27 08:55:00
4:15 AM,41.0,41.0,100,29.99,4.0,East,18.4,24.2,N/A,Rain,Light Rain,100,2013-02-27 09:15:00
4:35 AM,41.0,41.0,100,29.99,5.0,East,16.1,26.5,N/A,Rain,Light Rain,100,2013-02-27 09:35:00
4:55 AM,41.0,41.0,100,29.98,5.0,East,20.7,27.6,0.01,Rain,Light Rain,100,2013-02-27 09:55:00
5:15 AM,42.8,41.0,93,29.96,7.0,East,21.9,28.8,N/A,,Overcast,100,2013-02-27 10:15:00
5:35 AM,42.8,41.0,93,29.95,7.0,ESE,21.9,32.2,N/A,,Overcast,110,2013-02-27 10:35:00
5:55 AM,42.8,41.0,93,29.95,5.0,ESE,20.7,38.0,N/A,Rain,Light Rain,110,2013-02-27 10:55:00
6:15 AM,41.0,41.0,100,29.93,5.0,East,21.9,33.4,N/A,Rain,Light Rain,100,2013-02-27 11:15:00
6:35 AM,41.0,41.0,100,29.91,4.0,East,24.2,39.1,N/A,Rain,Light Rain,100,2013-02-27 11:35:00
6:55 AM,41.0,41.0,100,29.90,3.0,East,19.6,34.5,N/A,Rain,Light Rain,100,2013-02-27 11:55:00
7:15 AM,41.0,41.0,100,29.88,3.0,East,26.5,35.7,N/A,Rain,Light Rain,100,2013-02-27 12:15:00
7:35 AM,41.0,41.0,100,29.88,2.5,East,23.0,40.3,N/A,Rain,Light Rain,100,2013-02-27 12:35:00
7:55 AM,41.0,41.0,100,29.88,2.0,ESE,23.0,39.1,0.01,Rain,Light Rain,110,2013-02-27 12:55:00
8:15 AM,41.0,41.0,100,29.88,3.0,ESE,21.9,34.5,N/A,Rain,Light Rain,110,2013-02-27 13:15:00
8:35 AM,41.0,41.0,100,29.88,2.5,ESE,21.9,38.0,N/A,Rain,Light Rain,110,2013-02-27 13:35:00
8:55 AM,41.0,41.0,100,29.87,1.2,ESE,25.3,33.4,0.01,Rain,Light Rain,110,2013-02-27 13:55:00
9:15 AM,41.0,41.0,100,29.86,1.5,ESE,25.3,38.0,N/A,Rain,Light Rain,110,2013-02-27 14:15:00
9:35 AM,41.0,41.0,100,29.85,1.5,ESE,27.6,39.1,0.01,,Overcast,110,2013-02-27 14:35:00
9:55 AM,41.0,41.0,100,29.83,0.8,ESE,23.0,43.7,0.02,,Mostly Cloudy,110,2013-02-27 14:55:00
10:15 AM,41.0,41.0,100,29.81,1.2,ESE,28.8,44.9,N/A,,Mostly Cloudy,110,2013-02-27 15:15:00
10:35 AM,41.0,41.0,100,29.81,1.2,ESE,25.3,42.6,0.01,Rain,Light Rain,110,2013-02-27 15:35:00
10:55 AM,41.0,41.0,100,29.80,1.0,East,28.8,42.6,0.02,,Overcast,100,2013-02-27 15:55:00
11:15 AM,41.0,41.0,100,29.78,0.8,East,28.8,41.4,0.01,,Overcast,100,2013-02-27 16:15:00
11:55 AM,41.0,41.0,100,29.76,1.0,East,27.6,39.1,0.07,,Mostly Cloudy,100,2013-02-27 16:55:00
12:15 PM,41.0,41.0,100,29.74,1.2,East,24.2,42.6,N/A,,Overcast,100,2013-02-27 17:15:00
12:35 PM,41.0,41.0,100,29.73,1.2,East,26.5,41.4,0.01,,Overcast,100,2013-02-27 17:35:00
12:55 PM,41.0,41.0,100,29.72,1.2,ESE,21.9,38.0,0.02,,Overcast,110,2013-02-27 17:55:00
1:15 PM,41.0,41.0,100,29.70,2.0,East,26.5,35.7,N/A,Rain,Light Rain,100,2013-02-27 18:15:00
1:35 PM,41.0,41.0,100,29.69,2.0,East,26.5,38.0,N/A,,Overcast,100,2013-02-27 18:35:00
1:55 PM,41.0,41.0,100,29.69,2.5,ESE,21.9,42.6,0.01,,Overcast,110,2013-02-27 18:55:00
2:15 PM,41.0,41.0,100,29.67,2.5,East,28.8,39.1,N/A,,Overcast,100,2013-02-27 19:15:00
2:35 PM,41.0,41.0,100,29.66,3.0,East,28.8,42.6,N/A,,Overcast,100,2013-02-27 19:35:00
2:55 PM,41.0,41.0,100,29.64,4.0,ESE,23.0,39.1,N/A,,Overcast,110,2013-02-27 19:55:00
3:15 PM,41.0,41.0,100,29.64,2.5,ESE,25.3,40.3,N/A,Rain,Light Rain,110,2013-02-27 20:15:00
3:35 PM,41.0,41.0,100,29.63,4.0,ESE,23.0,36.8,N/A,,Overcast,110,2013-02-27 20:35:00
3:55 PM,41.0,41.0,100,29.61,0.8,ESE,32.2,42.6,0.02,,Overcast,110,2013-02-27 20:55:00
4:15 PM,41.0,41.0,100,29.61,4.0,ESE,23.0,31.1,N/A,,Overcast,110,2013-02-27 21:15:00
4:35 PM,41.0,41.0,100,29.60,7.0,ESE,21.9,31.1,N/A,,Overcast,110,2013-02-27 21:35:00
4:55 PM,42.8,41.0,93,29.60,5.0,ESE,18.4,40.3,N/A,Rain,Light Rain,110,2013-02-27 21:55:00
5:15 PM,42.8,42.8,100,29.59,4.0,ESE,18.4,26.5,N/A,,Overcast,110,2013-02-27 22:15:00
5:35 PM,42.8,42.8,100,29.60,2.5,ESE,20.7,27.6,N/A,,Overcast,120,2013-02-27 22:35:00
5:55 PM,42.8,42.8,100,29.60,3.0,SSE,12.7,20.7,N/A,,Overcast,150,2013-02-27 22:55:00
6:15 PM,42.8,42.8,100,29.59,3.0,ESE,13.8,23.0,N/A,,Overcast,110,2013-02-27 23:15:00
6:35 PM,42.8,42.8,100,29.58,6.0,ESE,12.7,-,N/A,,Overcast,110,2013-02-27 23:35:00
6:55 PM,42.8,42.8,100,29.58,4.0,ESE,10.4,20.7,N/A,,Overcast,110,2013-02-27 23:55:00
7:15 PM,42.8,42.8,100,29.57,2.0,ESE,12.7,-,N/A,,Overcast,120,2013-02-28 00:15:00
7:35 PM,44.6,44.6,100,29.57,1.0,SSE,8.1,-,N/A,,Overcast,150,2013-02-28 00:35:00
7:55 PM,44.6,44.6,100,29.57,1.0,South,8.1,-,N/A,,Overcast,180,2013-02-28 00:55:00
8:15 PM,42.8,42.8,100,29.56,0.5,SSW,8.1,-,N/A,Fog,Fog,200,2013-02-28 01:15:00
8:35 PM,42.8,42.8,100,29.57,0.5,SW,9.2,-,N/A,Fog,Fog,220,2013-02-28 01:35:00
8:55 PM,42.8,42.8,100,29.56,0.5,SW,12.7,-,N/A,Fog,Fog,230,2013-02-28 01:55:00
9:15 PM,44.6,42.8,93,29.57,0.5,SW,12.7,-,N/A,Fog,Fog,230,2013-02-28 02:15:00
9:35 PM,42.8,42.8,100,29.57,0.8,SW,12.7,-,N/A,,Overcast,230,2013-02-28 02:35:00
9:55 PM,42.8,42.8,100,29.58,0.8,SW,13.8,-,N/A,,Overcast,230,2013-02-28 02:55:00
10:15 PM,42.8,41.0,93,29.58,0.5,SW,11.5,-,N/A,Fog,Fog,220,2013-02-28 03:15:00
10:35 PM,41.0,41.0,100,29.57,0.8,SW,11.5,-,N/A,,Overcast,220,2013-02-28 03:35:00
10:55 PM,41.0,41.0,100,29.57,0.5,SW,10.4,-,N/A,Fog,Fog,220,2013-02-28 03:55:00
11:15 PM,41.0,41.0,100,29.58,0.5,SSW,10.4,-,N/A,Fog,Fog,210,2013-02-28 04:15:00
11:55 PM,41.0,41.0,100,29.58,0.8,WSW,16.1,-,N/A,,Overcast,250,2013-02-28 04:55:00